sensor_id;sensor_type;location;lat;lon;timestamp;P1;durP1;ratioP1;P2;durP2;ratioP2
19089;SDS011;9677;50.656;13.064;2023-05-16T00:01:25;10.37;;;9.40;;
19089;SDS011;9677;50.656;13.064;2023-05-16T00:03:56;10.87;;;9.87;;
19089;SDS011;9677;50.656;13.064;2023-05-16T00:06:24;10.83;;;9.83;;
19089;SDS011;9677;50.656;13.064;2023-05-16T00:08:52;10.33;;;9.37;;
19089;SDS011;9677;50.656;13.064;2023-05-16T00:11:20;10.70;;;9.80;;
19089;SDS011;9677;50.656;13.064;2023-05-16T00:13:49;10.63;;;9.63;;
19089;SDS011;9677;50.656;13.064;2023-05-16T00:16:18;10.60;;;9.60;;
19089;SDS011;9677;50.656;13.064;2023-05-16T00:18:47;10.43;;;9.43;;
19089;SDS011;9677;50.656;13.064;2023-05-16T00:21:15;10.60;;;9.60;;
19089;SDS011;9677;50.656;13.064;2023-05-16T00:23:43;10.57;;;9.67;;
19089;SDS011;9677;50.656;13.064;2023-05-16T00:26:11;10.30;;;9.40;;
19089;SDS011;9677;50.656;13.064;2023-05-16T00:28:39;10.20;;;9.27;;
19089;SDS011;9677;50.656;13.064;2023-05-16T00:31:09;10.50;;;9.50;;
19089;SDS011;9677;50.656;13.064;2023-05-16T00:33:37;10.87;;;9.87;;
19089;SDS011;9677;50.656;13.064;2023-05-16T00:36:05;10.47;;;9.53;;
19089;SDS011;9677;50.656;13.064;2023-05-16T00:38:34;10.37;;;9.47;;
19089;SDS011;9677;50.656;13.064;2023-05-16T00:41:02;11.00;;;10.00;;
19089;SDS011;9677;50.656;13.064;2023-05-16T00:43:30;10.70;;;9.70;;
19089;SDS011;9677;50.656;13.064;2023-05-16T00:45:59;10.93;;;9.83;;
19089;SDS011;9677;50.656;13.064;2023-05-16T00:48:29;10.47;;;9.47;;
19089;SDS011;9677;50.656;13.064;2023-05-16T00:50:58;10.60;;;9.60;;
19089;SDS011;9677;50.656;13.064;2023-05-16T00:53:27;10.60;;;9.50;;
19089;SDS011;9677;50.656;13.064;2023-05-16T00:55:55;10.30;;;9.40;;
19089;SDS011;9677;50.656;13.064;2023-05-16T00:58:24;10.50;;;9.60;;
19089;SDS011;9677;50.656;13.064;2023-05-16T01:00:52;11.30;;;10.30;;
19089;SDS011;9677;50.656;13.064;2023-05-16T01:03:20;10.90;;;9.90;;
19089;SDS011;9677;50.656;13.064;2023-05-16T01:05:50;10.70;;;9.70;;
19089;SDS011;9677;50.656;13.064;2023-05-16T01:08:18;10.73;;;9.73;;
19089;SDS011;9677;50.656;13.064;2023-05-16T01:10:48;10.87;;;9.87;;
19089;SDS011;9677;50.656;13.064;2023-05-16T01:13:28;11.10;;;10.00;;
19089;SDS011;9677;50.656;13.064;2023-05-16T01:16:06;10.50;;;9.60;;
19089;SDS011;9677;50.656;13.064;2023-05-16T01:18:41;10.50;;;9.60;;
19089;SDS011;9677;50.656;13.064;2023-05-16T01:21:23;10.50;;;9.60;;
19089;SDS011;9677;50.656;13.064;2023-05-16T01:24:12;11.70;;;10.60;;
19089;SDS011;9677;50.656;13.064;2023-05-16T01:26:50;10.80;;;9.80;;
19089;SDS011;9677;50.656;13.064;2023-05-16T01:29:19;10.83;;;9.83;;
19089;SDS011;9677;50.656;13.064;2023-05-16T01:31:47;10.77;;;9.77;;
19089;SDS011;9677;50.656;13.064;2023-05-16T01:34:17;10.57;;;9.67;;
19089;SDS011;9677;50.656;13.064;2023-05-16T01:36:47;10.50;;;9.40;;
19089;SDS011;9677;50.656;13.064;2023-05-16T01:39:29;10.83;;;9.83;;
19089;SDS011;9677;50.656;13.064;2023-05-16T01:42:06;11.40;;;10.40;;
19089;SDS011;9677;50.656;13.064;2023-05-16T01:44:40;11.00;;;10.00;;
19089;SDS011;9677;50.656;13.064;2023-05-16T01:47:13;10.87;;;9.87;;
19089;SDS011;9677;50.656;13.064;2023-05-16T01:49:45;10.93;;;9.80;;
19089;SDS011;9677;50.656;13.064;2023-05-16T01:52:25;10.77;;;9.87;;
19089;SDS011;9677;50.656;13.064;2023-05-16T01:54:59;11.13;;;10.10;;
19089;SDS011;9677;50.656;13.064;2023-05-16T01:57:30;10.83;;;9.87;;
19089;SDS011;9677;50.656;13.064;2023-05-16T01:59:59;10.90;;;9.90;;
19089;SDS011;9677;50.656;13.064;2023-05-16T02:02:27;11.00;;;10.00;;
19089;SDS011;9677;50.656;13.064;2023-05-16T02:04:55;11.30;;;10.20;;
19089;SDS011;9677;50.656;13.064;2023-05-16T02:07:23;10.50;;;9.60;;
19089;SDS011;9677;50.656;13.064;2023-05-16T02:09:51;10.97;;;9.97;;
19089;SDS011;9677;50.656;13.064;2023-05-16T02:12:19;10.93;;;9.93;;
19089;SDS011;9677;50.656;13.064;2023-05-16T02:14:48;10.90;;;9.90;;
19089;SDS011;9677;50.656;13.064;2023-05-16T02:17:16;10.83;;;9.83;;
19089;SDS011;9677;50.656;13.064;2023-05-16T02:19:44;10.60;;;9.70;;
19089;SDS011;9677;50.656;13.064;2023-05-16T02:22:12;10.73;;;9.73;;
19089;SDS011;9677;50.656;13.064;2023-05-16T02:24:40;10.63;;;9.63;;
19089;SDS011;9677;50.656;13.064;2023-05-16T02:27:08;11.17;;;10.17;;
19089;SDS011;9677;50.656;13.064;2023-05-16T02:29:36;10.63;;;9.63;;
19089;SDS011;9677;50.656;13.064;2023-05-16T02:32:05;10.80;;;9.80;;
19089;SDS011;9677;50.656;13.064;2023-05-16T02:34:34;10.70;;;9.70;;
19089;SDS011;9677;50.656;13.064;2023-05-16T02:37:02;11.30;;;10.13;;
19089;SDS011;9677;50.656;13.064;2023-05-16T02:39:30;10.93;;;9.93;;
19089;SDS011;9677;50.656;13.064;2023-05-16T02:41:58;10.83;;;9.90;;
19089;SDS011;9677;50.656;13.064;2023-05-16T02:44:26;11.20;;;10.00;;
19089;SDS011;9677;50.656;13.064;2023-05-16T02:46:54;10.70;;;9.73;;
19089;SDS011;9677;50.656;13.064;2023-05-16T02:49:23;10.90;;;9.90;;
19089;SDS011;9677;50.656;13.064;2023-05-16T02:51:51;11.30;;;10.27;;
19089;SDS011;9677;50.656;13.064;2023-05-16T02:54:20;10.83;;;9.83;;
19089;SDS011;9677;50.656;13.064;2023-05-16T02:56:48;11.30;;;10.17;;
19089;SDS011;9677;50.656;13.064;2023-05-16T02:59:18;10.37;;;9.47;;
19089;SDS011;9677;50.656;13.064;2023-05-16T03:01:46;10.43;;;9.53;;
19089;SDS011;9677;50.656;13.064;2023-05-16T03:04:14;10.43;;;9.50;;
19089;SDS011;9677;50.656;13.064;2023-05-16T03:06:43;11.23;;;10.23;;
19089;SDS011;9677;50.656;13.064;2023-05-16T03:09:11;10.60;;;9.60;;
19089;SDS011;9677;50.656;13.064;2023-05-16T03:11:41;10.90;;;9.90;;
19089;SDS011;9677;50.656;13.064;2023-05-16T03:14:10;10.60;;;9.60;;
19089;SDS011;9677;50.656;13.064;2023-05-16T03:16:38;10.83;;;9.83;;
19089;SDS011;9677;50.656;13.064;2023-05-16T03:19:08;10.77;;;9.77;;
19089;SDS011;9677;50.656;13.064;2023-05-16T03:21:37;10.90;;;9.90;;
19089;SDS011;9677;50.656;13.064;2023-05-16T03:24:07;10.60;;;9.60;;
19089;SDS011;9677;50.656;13.064;2023-05-16T03:26:35;11.10;;;10.00;;
19089;SDS011;9677;50.656;13.064;2023-05-16T03:29:03;10.67;;;9.67;;
19089;SDS011;9677;50.656;13.064;2023-05-16T03:31:31;11.00;;;9.90;;
19089;SDS011;9677;50.656;13.064;2023-05-16T03:33:59;11.10;;;10.00;;
19089;SDS011;9677;50.656;13.064;2023-05-16T03:36:27;11.27;;;10.27;;
19089;SDS011;9677;50.656;13.064;2023-05-16T03:38:55;10.53;;;9.53;;
19089;SDS011;9677;50.656;13.064;2023-05-16T03:41:24;10.43;;;9.50;;
19089;SDS011;9677;50.656;13.064;2023-05-16T03:43:52;11.10;;;10.10;;
19089;SDS011;9677;50.656;13.064;2023-05-16T03:46:21;10.60;;;9.60;;
19089;SDS011;9677;50.656;13.064;2023-05-16T03:48:49;11.63;;;10.53;;
19089;SDS011;9677;50.656;13.064;2023-05-16T03:51:17;11.03;;;9.93;;
19089;SDS011;9677;50.656;13.064;2023-05-16T03:53:45;10.60;;;9.70;;
19089;SDS011;9677;50.656;13.064;2023-05-16T03:56:13;10.90;;;9.93;;
19089;SDS011;9677;50.656;13.064;2023-05-16T03:58:42;10.60;;;9.60;;
19089;SDS011;9677;50.656;13.064;2023-05-16T04:01:10;10.97;;;9.90;;
19089;SDS011;9677;50.656;13.064;2023-05-16T04:03:38;10.80;;;9.80;;
19089;SDS011;9677;50.656;13.064;2023-05-16T04:06:06;10.67;;;9.67;;
19089;SDS011;9677;50.656;13.064;2023-05-16T04:08:34;10.43;;;9.50;;
19089;SDS011;9677;50.656;13.064;2023-05-16T04:11:04;10.90;;;9.90;;
19089;SDS011;9677;50.656;13.064;2023-05-16T04:13:32;10.63;;;9.63;;
19089;SDS011;9677;50.656;13.064;2023-05-16T04:16:02;10.90;;;9.90;;
19089;SDS011;9677;50.656;13.064;2023-05-16T04:18:30;10.73;;;9.73;;
19089;SDS011;9677;50.656;13.064;2023-05-16T04:20:58;11.00;;;10.00;;
19089;SDS011;9677;50.656;13.064;2023-05-16T04:23:26;10.80;;;9.80;;
19089;SDS011;9677;50.656;13.064;2023-05-16T04:25:54;11.77;;;10.27;;
19089;SDS011;9677;50.656;13.064;2023-05-16T04:28:22;10.50;;;9.50;;
19089;SDS011;9677;50.656;13.064;2023-05-16T04:30:50;10.57;;;9.57;;
19089;SDS011;9677;50.656;13.064;2023-05-16T04:33:19;10.77;;;9.77;;
19089;SDS011;9677;50.656;13.064;2023-05-16T04:35:47;10.90;;;9.90;;
19089;SDS011;9677;50.656;13.064;2023-05-16T04:38:15;11.27;;;10.23;;
19089;SDS011;9677;50.656;13.064;2023-05-16T04:40:43;10.70;;;9.70;;
19089;SDS011;9677;50.656;13.064;2023-05-16T04:43:11;11.30;;;10.10;;
19089;SDS011;9677;50.656;13.064;2023-05-16T04:45:39;11.00;;;10.00;;
19089;SDS011;9677;50.656;13.064;2023-05-16T04:48:09;11.03;;;9.97;;
19089;SDS011;9677;50.656;13.064;2023-05-16T04:50:39;11.57;;;10.47;;
19089;SDS011;9677;50.656;13.064;2023-05-16T04:53:07;10.97;;;9.97;;
19089;SDS011;9677;50.656;13.064;2023-05-16T04:55:35;12.40;;;11.10;;
19089;SDS011;9677;50.656;13.064;2023-05-16T04:58:03;11.87;;;10.70;;
19089;SDS011;9677;50.656;13.064;2023-05-16T05:00:31;11.80;;;10.60;;
19089;SDS011;9677;50.656;13.064;2023-05-16T05:02:59;11.60;;;10.50;;
19089;SDS011;9677;50.656;13.064;2023-05-16T05:05:27;11.50;;;10.40;;
19089;SDS011;9677;50.656;13.064;2023-05-16T05:07:57;11.60;;;10.50;;
19089;SDS011;9677;50.656;13.064;2023-05-16T05:10:26;11.97;;;10.77;;
19089;SDS011;9677;50.656;13.064;2023-05-16T05:12:56;13.20;;;11.90;;
19089;SDS011;9677;50.656;13.064;2023-05-16T05:15:24;12.73;;;10.93;;
19089;SDS011;9677;50.656;13.064;2023-05-16T05:17:52;11.37;;;10.27;;
19089;SDS011;9677;50.656;13.064;2023-05-16T05:20:21;11.67;;;10.57;;
19089;SDS011;9677;50.656;13.064;2023-05-16T05:22:49;11.87;;;10.70;;
19089;SDS011;9677;50.656;13.064;2023-05-16T05:25:18;11.50;;;10.40;;
19089;SDS011;9677;50.656;13.064;2023-05-16T05:27:46;11.80;;;10.60;;
19089;SDS011;9677;50.656;13.064;2023-05-16T05:30:14;11.50;;;10.40;;
19089;SDS011;9677;50.656;13.064;2023-05-16T05:32:42;11.10;;;10.00;;
19089;SDS011;9677;50.656;13.064;2023-05-16T05:35:10;11.33;;;10.23;;
19089;SDS011;9677;50.656;13.064;2023-05-16T05:37:38;11.67;;;10.57;;
19089;SDS011;9677;50.656;13.064;2023-05-16T05:40:06;11.77;;;10.57;;
19089;SDS011;9677;50.656;13.064;2023-05-16T05:42:36;11.67;;;10.47;;
19089;SDS011;9677;50.656;13.064;2023-05-16T05:45:05;11.47;;;10.40;;
19089;SDS011;9677;50.656;13.064;2023-05-16T05:47:33;11.87;;;10.47;;
19089;SDS011;9677;50.656;13.064;2023-05-16T05:50:01;11.40;;;10.23;;
19089;SDS011;9677;50.656;13.064;2023-05-16T05:52:30;11.27;;;10.17;;
19089;SDS011;9677;50.656;13.064;2023-05-16T05:54:58;12.10;;;10.90;;
19089;SDS011;9677;50.656;13.064;2023-05-16T05:57:26;11.47;;;10.37;;
19089;SDS011;9677;50.656;13.064;2023-05-16T05:59:56;11.93;;;10.77;;
19089;SDS011;9677;50.656;13.064;2023-05-16T06:02:24;11.50;;;10.40;;
19089;SDS011;9677;50.656;13.064;2023-05-16T06:04:53;12.17;;;10.97;;
19089;SDS011;9677;50.656;13.064;2023-05-16T06:07:21;11.60;;;10.50;;
19089;SDS011;9677;50.656;13.064;2023-05-16T06:09:49;11.83;;;10.63;;
19089;SDS011;9677;50.656;13.064;2023-05-16T06:12:17;12.00;;;10.80;;
19089;SDS011;9677;50.656;13.064;2023-05-16T06:14:45;11.83;;;10.50;;
19089;SDS011;9677;50.656;13.064;2023-05-16T06:17:14;13.63;;;10.77;;
19089;SDS011;9677;50.656;13.064;2023-05-16T06:19:42;12.53;;;11.33;;
19089;SDS011;9677;50.656;13.064;2023-05-16T06:22:10;12.37;;;11.13;;
19089;SDS011;9677;50.656;13.064;2023-05-16T06:24:38;13.33;;;12.00;;
19089;SDS011;9677;50.656;13.064;2023-05-16T06:27:07;12.80;;;11.50;;
19089;SDS011;9677;50.656;13.064;2023-05-16T06:29:35;13.17;;;11.30;;
19089;SDS011;9677;50.656;13.064;2023-05-16T06:32:03;11.90;;;10.70;;
19089;SDS011;9677;50.656;13.064;2023-05-16T06:34:33;12.30;;;11.10;;
19089;SDS011;9677;50.656;13.064;2023-05-16T06:37:02;13.07;;;11.40;;
19089;SDS011;9677;50.656;13.064;2023-05-16T06:39:31;12.93;;;11.53;;
19089;SDS011;9677;50.656;13.064;2023-05-16T06:41:59;12.83;;;11.40;;
19089;SDS011;9677;50.656;13.064;2023-05-16T06:44:30;13.23;;;11.83;;
19089;SDS011;9677;50.656;13.064;2023-05-16T06:46:58;12.60;;;11.40;;
19089;SDS011;9677;50.656;13.064;2023-05-16T06:49:27;12.53;;;11.27;;
19089;SDS011;9677;50.656;13.064;2023-05-16T06:51:56;12.43;;;11.23;;
19089;SDS011;9677;50.656;13.064;2023-05-16T06:54:24;13.57;;;12.23;;
19089;SDS011;9677;50.656;13.064;2023-05-16T06:56:52;16.13;;;12.00;;
19089;SDS011;9677;50.656;13.064;2023-05-16T06:59:20;13.50;;;12.20;;
19089;SDS011;9677;50.656;13.064;2023-05-16T07:01:48;13.60;;;12.30;;
19089;SDS011;9677;50.656;13.064;2023-05-16T07:04:16;14.37;;;12.97;;
19089;SDS011;9677;50.656;13.064;2023-05-16T07:06:44;15.43;;;12.90;;
19089;SDS011;9677;50.656;13.064;2023-05-16T07:09:13;14.23;;;12.63;;
19089;SDS011;9677;50.656;13.064;2023-05-16T07:11:41;13.40;;;12.10;;
19089;SDS011;9677;50.656;13.064;2023-05-16T07:14:09;13.93;;;12.53;;
19089;SDS011;9677;50.656;13.064;2023-05-16T07:16:37;13.10;;;11.83;;
19089;SDS011;9677;50.656;13.064;2023-05-16T07:19:06;15.83;;;13.03;;
19089;SDS011;9677;50.656;13.064;2023-05-16T07:21:34;13.37;;;12.07;;
19089;SDS011;9677;50.656;13.064;2023-05-16T07:24:02;14.17;;;12.77;;
19089;SDS011;9677;50.656;13.064;2023-05-16T07:26:32;13.60;;;12.20;;
19089;SDS011;9677;50.656;13.064;2023-05-16T07:29:01;14.77;;;13.17;;
19089;SDS011;9677;50.656;13.064;2023-05-16T07:31:29;13.80;;;12.40;;
19089;SDS011;9677;50.656;13.064;2023-05-16T07:33:57;14.50;;;13.00;;
19089;SDS011;9677;50.656;13.064;2023-05-16T07:36:26;14.93;;;13.43;;
19089;SDS011;9677;50.656;13.064;2023-05-16T07:38:54;14.53;;;13.03;;
19089;SDS011;9677;50.656;13.064;2023-05-16T07:41:22;14.60;;;13.10;;
19089;SDS011;9677;50.656;13.064;2023-05-16T07:43:52;14.13;;;12.73;;
19089;SDS011;9677;50.656;13.064;2023-05-16T07:46:20;14.03;;;12.53;;
19089;SDS011;9677;50.656;13.064;2023-05-16T07:48:48;15.10;;;13.57;;
19089;SDS011;9677;50.656;13.064;2023-05-16T07:51:16;13.97;;;12.57;;
19089;SDS011;9677;50.656;13.064;2023-05-16T07:53:45;15.27;;;13.77;;
19089;SDS011;9677;50.656;13.064;2023-05-16T07:56:13;15.67;;;13.97;;
19089;SDS011;9677;50.656;13.064;2023-05-16T07:58:41;14.17;;;12.77;;
19089;SDS011;9677;50.656;13.064;2023-05-16T08:01:10;14.80;;;13.20;;
19089;SDS011;9677;50.656;13.064;2023-05-16T08:03:39;14.40;;;12.90;;
19089;SDS011;9677;50.656;13.064;2023-05-16T08:06:07;17.00;;;14.63;;
19089;SDS011;9677;50.656;13.064;2023-05-16T08:08:35;15.93;;;14.20;;
19089;SDS011;9677;50.656;13.064;2023-05-16T08:11:03;15.07;;;13.47;;
19089;SDS011;9677;50.656;13.064;2023-05-16T08:13:32;16.40;;;14.20;;
19089;SDS011;9677;50.656;13.064;2023-05-16T08:16:00;14.13;;;12.73;;
19089;SDS011;9677;50.656;13.064;2023-05-16T08:18:29;14.57;;;13.07;;
19089;SDS011;9677;50.656;13.064;2023-05-16T08:20:57;14.43;;;12.93;;
19089;SDS011;9677;50.656;13.064;2023-05-16T08:23:25;14.43;;;12.90;;
19089;SDS011;9677;50.656;13.064;2023-05-16T08:25:53;12.80;;;11.50;;
19089;SDS011;9677;50.656;13.064;2023-05-16T08:28:21;13.60;;;12.20;;
19089;SDS011;9677;50.656;13.064;2023-05-16T08:30:50;13.33;;;11.93;;
19089;SDS011;9677;50.656;13.064;2023-05-16T08:33:18;14.20;;;12.70;;
19089;SDS011;9677;50.656;13.064;2023-05-16T08:35:49;13.93;;;12.43;;
19089;SDS011;9677;50.656;13.064;2023-05-16T08:38:18;13.90;;;12.40;;
19089;SDS011;9677;50.656;13.064;2023-05-16T08:40:46;13.37;;;12.00;;
19089;SDS011;9677;50.656;13.064;2023-05-16T08:43:14;13.37;;;11.97;;
19089;SDS011;9677;50.656;13.064;2023-05-16T08:45:42;13.67;;;12.20;;
19089;SDS011;9677;50.656;13.064;2023-05-16T08:48:10;12.80;;;11.50;;
19089;SDS011;9677;50.656;13.064;2023-05-16T08:50:38;14.20;;;12.70;;
19089;SDS011;9677;50.656;13.064;2023-05-16T08:53:12;13.10;;;11.80;;
19089;SDS011;9677;50.656;13.064;2023-05-16T08:55:44;13.10;;;11.80;;
19089;SDS011;9677;50.656;13.064;2023-05-16T08:58:15;13.70;;;12.30;;
19089;SDS011;9677;50.656;13.064;2023-05-16T09:00:43;13.17;;;11.80;;
19089;SDS011;9677;50.656;13.064;2023-05-16T09:03:12;12.53;;;11.23;;
19089;SDS011;9677;50.656;13.064;2023-05-16T09:05:41;12.70;;;11.50;;
19089;SDS011;9677;50.656;13.064;2023-05-16T09:08:10;13.10;;;11.70;;
19089;SDS011;9677;50.656;13.064;2023-05-16T09:10:39;12.80;;;11.60;;
19089;SDS011;9677;50.656;13.064;2023-05-16T09:13:07;13.97;;;11.90;;
19089;SDS011;9677;50.656;13.064;2023-05-16T09:15:35;14.10;;;12.60;;
19089;SDS011;9677;50.656;13.064;2023-05-16T09:18:03;13.30;;;11.90;;
19089;SDS011;9677;50.656;13.064;2023-05-16T09:20:32;15.37;;;11.70;;
19089;SDS011;9677;50.656;13.064;2023-05-16T09:23:00;14.10;;;12.60;;
19089;SDS011;9677;50.656;13.064;2023-05-16T09:25:30;14.17;;;11.97;;
19089;SDS011;9677;50.656;13.064;2023-05-16T09:27:58;13.10;;;11.70;;
19089;SDS011;9677;50.656;13.064;2023-05-16T09:30:29;12.60;;;11.27;;
19089;SDS011;9677;50.656;13.064;2023-05-16T09:33:00;12.37;;;11.17;;
19089;SDS011;9677;50.656;13.064;2023-05-16T09:35:29;12.70;;;11.40;;
19089;SDS011;9677;50.656;13.064;2023-05-16T09:38:01;13.23;;;11.93;;
19089;SDS011;9677;50.656;13.064;2023-05-16T09:40:30;12.40;;;11.10;;
19089;SDS011;9677;50.656;13.064;2023-05-16T09:43:02;13.23;;;11.97;;
19089;SDS011;9677;50.656;13.064;2023-05-16T09:45:31;12.40;;;11.20;;
19089;SDS011;9677;50.656;13.064;2023-05-16T09:48:01;12.70;;;11.40;;
19089;SDS011;9677;50.656;13.064;2023-05-16T09:50:32;13.67;;;11.80;;
19089;SDS011;9677;50.656;13.064;2023-05-16T09:53:01;13.90;;;12.33;;
19089;SDS011;9677;50.656;13.064;2023-05-16T09:55:31;13.40;;;11.50;;
19089;SDS011;9677;50.656;13.064;2023-05-16T09:57:59;12.90;;;11.60;;
19089;SDS011;9677;50.656;13.064;2023-05-16T10:00:28;13.67;;;12.27;;
19089;SDS011;9677;50.656;13.064;2023-05-16T10:02:57;13.03;;;11.67;;
19089;SDS011;9677;50.656;13.064;2023-05-16T10:05:31;13.07;;;11.50;;
19089;SDS011;9677;50.656;13.064;2023-05-16T10:08:01;13.77;;;12.30;;
19089;SDS011;9677;50.656;13.064;2023-05-16T10:10:35;13.20;;;11.80;;
19089;SDS011;9677;50.656;13.064;2023-05-16T10:13:04;13.00;;;11.70;;
19089;SDS011;9677;50.656;13.064;2023-05-16T10:15:35;13.00;;;11.70;;
19089;SDS011;9677;50.656;13.064;2023-05-16T10:18:04;14.47;;;12.73;;
19089;SDS011;9677;50.656;13.064;2023-05-16T10:20:38;13.20;;;11.80;;
19089;SDS011;9677;50.656;13.064;2023-05-16T10:23:09;12.97;;;11.67;;
19089;SDS011;9677;50.656;13.064;2023-05-16T10:25:46;12.63;;;11.43;;
19089;SDS011;9677;50.656;13.064;2023-05-16T10:28:15;13.30;;;11.93;;
19089;SDS011;9677;50.656;13.064;2023-05-16T10:30:44;12.80;;;11.40;;
19089;SDS011;9677;50.656;13.064;2023-05-16T10:33:14;12.20;;;11.00;;
19089;SDS011;9677;50.656;13.064;2023-05-16T10:35:45;14.70;;;12.73;;
19089;SDS011;9677;50.656;13.064;2023-05-16T10:38:14;13.33;;;12.03;;
19089;SDS011;9677;50.656;13.064;2023-05-16T10:40:46;13.73;;;12.20;;
19089;SDS011;9677;50.656;13.064;2023-05-16T10:43:21;14.27;;;12.70;;
19089;SDS011;9677;50.656;13.064;2023-05-16T10:45:55;13.17;;;11.77;;
19089;SDS011;9677;50.656;13.064;2023-05-16T10:48:29;14.30;;;12.57;;
19089;SDS011;9677;50.656;13.064;2023-05-16T10:50:58;13.87;;;12.47;;
19089;SDS011;9677;50.656;13.064;2023-05-16T10:53:29;13.83;;;12.40;;
19089;SDS011;9677;50.656;13.064;2023-05-16T10:56:10;13.27;;;11.90;;
19089;SDS011;9677;50.656;13.064;2023-05-16T10:58:39;14.43;;;12.53;;
19089;SDS011;9677;50.656;13.064;2023-05-16T11:01:14;13.50;;;12.10;;
19089;SDS011;9677;50.656;13.064;2023-05-16T11:04:00;13.20;;;11.90;;
19089;SDS011;9677;50.656;13.064;2023-05-16T11:06:31;12.80;;;11.50;;
19089;SDS011;9677;50.656;13.064;2023-05-16T11:09:05;13.30;;;11.90;;
19089;SDS011;9677;50.656;13.064;2023-05-16T11:11:41;13.03;;;11.73;;
19089;SDS011;9677;50.656;13.064;2023-05-16T11:14:18;12.33;;;11.13;;
19089;SDS011;9677;50.656;13.064;2023-05-16T11:16:49;12.37;;;11.07;;
19089;SDS011;9677;50.656;13.064;2023-05-16T11:19:32;12.23;;;11.03;;
19089;SDS011;9677;50.656;13.064;2023-05-16T11:22:09;12.43;;;11.23;;
19089;SDS011;9677;50.656;13.064;2023-05-16T11:24:49;12.47;;;11.23;;
19089;SDS011;9677;50.656;13.064;2023-05-16T11:27:23;12.30;;;11.00;;
19089;SDS011;9677;50.656;13.064;2023-05-16T11:29:54;11.80;;;10.67;;
19089;SDS011;9677;50.656;13.064;2023-05-16T11:32:30;11.77;;;10.67;;
19089;SDS011;9677;50.656;13.064;2023-05-16T11:35:02;11.93;;;10.73;;
19089;SDS011;9677;50.656;13.064;2023-05-16T11:37:31;12.50;;;11.20;;
19089;SDS011;9677;50.656;13.064;2023-05-16T11:39:59;12.10;;;10.90;;
19089;SDS011;9677;50.656;13.064;2023-05-16T11:42:30;13.20;;;10.67;;
19089;SDS011;9677;50.656;13.064;2023-05-16T11:45:04;11.67;;;10.50;;
19089;SDS011;9677;50.656;13.064;2023-05-16T11:47:35;11.90;;;10.70;;
19089;SDS011;9677;50.656;13.064;2023-05-16T11:50:05;11.17;;;10.07;;
19089;SDS011;9677;50.656;13.064;2023-05-16T11:52:35;11.50;;;10.40;;
19089;SDS011;9677;50.656;13.064;2023-05-16T11:55:05;11.60;;;10.50;;
19089;SDS011;9677;50.656;13.064;2023-05-16T11:57:38;11.57;;;10.40;;
19089;SDS011;9677;50.656;13.064;2023-05-16T12:00:12;10.60;;;9.60;;
19089;SDS011;9677;50.656;13.064;2023-05-16T12:02:43;11.20;;;10.10;;
19089;SDS011;9677;50.656;13.064;2023-05-16T12:05:13;10.93;;;9.80;;
19089;SDS011;9677;50.656;13.064;2023-05-16T12:07:42;11.50;;;10.40;;
19089;SDS011;9677;50.656;13.064;2023-05-16T12:10:12;10.83;;;9.83;;
19089;SDS011;9677;50.656;13.064;2023-05-16T12:12:43;11.03;;;10.03;;
19089;SDS011;9677;50.656;13.064;2023-05-16T12:15:14;10.60;;;9.53;;
19089;SDS011;9677;50.656;13.064;2023-05-16T12:17:44;10.83;;;9.83;;
19089;SDS011;9677;50.656;13.064;2023-05-16T12:20:13;10.90;;;9.90;;
19089;SDS011;9677;50.656;13.064;2023-05-16T12:22:43;10.80;;;9.80;;
19089;SDS011;9677;50.656;13.064;2023-05-16T12:25:21;10.80;;;9.80;;
19089;SDS011;9677;50.656;13.064;2023-05-16T12:27:56;10.80;;;9.80;;
19089;SDS011;9677;50.656;13.064;2023-05-16T12:30:26;10.87;;;9.87;;
19089;SDS011;9677;50.656;13.064;2023-05-16T12:32:57;10.23;;;9.33;;
19089;SDS011;9677;50.656;13.064;2023-05-16T12:35:31;10.57;;;9.60;;
19089;SDS011;9677;50.656;13.064;2023-05-16T12:38:02;10.27;;;9.27;;
19089;SDS011;9677;50.656;13.064;2023-05-16T12:40:31;10.00;;;9.10;;
19089;SDS011;9677;50.656;13.064;2023-05-16T12:43:00;10.50;;;9.50;;
19089;SDS011;9677;50.656;13.064;2023-05-16T12:45:28;9.90;;;9.00;;
19089;SDS011;9677;50.656;13.064;2023-05-16T12:48:03;10.00;;;9.10;;
19089;SDS011;9677;50.656;13.064;2023-05-16T12:50:32;9.73;;;8.90;;
19089;SDS011;9677;50.656;13.064;2023-05-16T12:53:02;10.00;;;9.10;;
19089;SDS011;9677;50.656;13.064;2023-05-16T12:55:30;10.37;;;9.37;;
19089;SDS011;9677;50.656;13.064;2023-05-16T12:57:58;10.07;;;9.17;;
19089;SDS011;9677;50.656;13.064;2023-05-16T13:00:29;10.63;;;9.53;;
19089;SDS011;9677;50.656;13.064;2023-05-16T13:02:57;10.13;;;9.20;;
19089;SDS011;9677;50.656;13.064;2023-05-16T13:05:26;10.47;;;9.47;;
19089;SDS011;9677;50.656;13.064;2023-05-16T13:07:54;10.17;;;9.27;;
19089;SDS011;9677;50.656;13.064;2023-05-16T13:10:22;10.30;;;9.30;;
19089;SDS011;9677;50.656;13.064;2023-05-16T13:12:51;10.37;;;9.37;;
19089;SDS011;9677;50.656;13.064;2023-05-16T13:15:21;9.97;;;9.07;;
19089;SDS011;9677;50.656;13.064;2023-05-16T13:17:49;10.23;;;9.30;;
19089;SDS011;9677;50.656;13.064;2023-05-16T13:20:17;10.43;;;9.43;;
19089;SDS011;9677;50.656;13.064;2023-05-16T13:22:46;10.20;;;9.20;;
19089;SDS011;9677;50.656;13.064;2023-05-16T13:25:14;10.23;;;9.23;;
19089;SDS011;9677;50.656;13.064;2023-05-16T13:27:42;9.90;;;9.00;;
19089;SDS011;9677;50.656;13.064;2023-05-16T13:30:10;10.20;;;9.20;;
19089;SDS011;9677;50.656;13.064;2023-05-16T13:32:40;10.07;;;9.17;;
19089;SDS011;9677;50.656;13.064;2023-05-16T13:35:08;10.10;;;9.20;;
19089;SDS011;9677;50.656;13.064;2023-05-16T13:37:36;10.60;;;9.60;;
19089;SDS011;9677;50.656;13.064;2023-05-16T13:40:05;9.60;;;8.80;;
19089;SDS011;9677;50.656;13.064;2023-05-16T13:42:35;9.73;;;8.87;;
19089;SDS011;9677;50.656;13.064;2023-05-16T13:45:04;9.93;;;9.03;;
19089;SDS011;9677;50.656;13.064;2023-05-16T13:47:33;10.23;;;9.33;;
19089;SDS011;9677;50.656;13.064;2023-05-16T13:50:04;10.10;;;9.20;;
19089;SDS011;9677;50.656;13.064;2023-05-16T13:52:36;9.87;;;8.93;;
19089;SDS011;9677;50.656;13.064;2023-05-16T13:55:05;10.27;;;9.27;;
19089;SDS011;9677;50.656;13.064;2023-05-16T13:57:34;9.80;;;8.90;;
19089;SDS011;9677;50.656;13.064;2023-05-16T14:00:03;10.23;;;9.33;;
19089;SDS011;9677;50.656;13.064;2023-05-16T14:02:57;10.33;;;9.23;;
19089;SDS011;9677;50.656;13.064;2023-05-16T14:05:27;10.10;;;9.17;;
19089;SDS011;9677;50.656;13.064;2023-05-16T14:07:55;10.43;;;8.93;;
19089;SDS011;9677;50.656;13.064;2023-05-16T14:10:23;9.60;;;8.70;;
19089;SDS011;9677;50.656;13.064;2023-05-16T14:12:52;10.10;;;9.20;;
19089;SDS011;9677;50.656;13.064;2023-05-16T14:15:20;10.90;;;9.10;;
19089;SDS011;9677;50.656;13.064;2023-05-16T14:17:48;9.97;;;8.97;;
19089;SDS011;9677;50.656;13.064;2023-05-16T14:20:17;9.90;;;9.00;;
19089;SDS011;9677;50.656;13.064;2023-05-16T14:22:46;10.13;;;9.00;;
19089;SDS011;9677;50.656;13.064;2023-05-16T14:25:15;9.80;;;8.90;;
19089;SDS011;9677;50.656;13.064;2023-05-16T14:27:43;9.60;;;8.70;;
19089;SDS011;9677;50.656;13.064;2023-05-16T14:30:11;11.20;;;9.20;;
19089;SDS011;9677;50.656;13.064;2023-05-16T14:32:40;10.00;;;9.00;;
19089;SDS011;9677;50.656;13.064;2023-05-16T14:35:08;10.10;;;9.20;;
19089;SDS011;9677;50.656;13.064;2023-05-16T14:37:36;10.27;;;9.27;;
19089;SDS011;9677;50.656;13.064;2023-05-16T14:40:06;10.17;;;9.27;;
19089;SDS011;9677;50.656;13.064;2023-05-16T14:42:35;10.20;;;9.20;;